Time;durP1;ratioP1;P1;durP2;ratioP2;P2;SDS_P1;SDS_P2;PMS_P1;PMS_P2;Temp;Humidity;BMP_temperature;BMP_pressure;BME280_temperature;BME280_humidity;BME280_pressure;Samples;Min_cycle;Max_cycle;Signal;HPM_P1;HPM_P2
2021/08/16 00:02:33;;;;;;;6.43;4.15;;;;;;;19.54;66.90;99411.16;10368471;28;20165;-71
2021/08/16 00:07:35;;;;;;;6.32;4.43;;;;;;;19.84;66.26;99402.59;10386343;28;20050;-71
2021/08/16 00:12:37;;;;;;;5.05;4.40;;;;;;;19.74;66.73;99396.28;10388987;28;20049;-71
2021/08/16 00:17:38;;;;;;;5.18;4.30;;;;;;;19.68;66.84;99379.94;10388869;28;20554;-70
2021/08/16 00:22:40;;;;;;;4.07;3.75;;;;;;;19.45;67.88;99376.41;10372715;28;20049;-70
2021/08/16 00:27:42;;;;;;;5.85;4.65;;;;;;;19.12;69.21;99372.72;10384474;28;20272;-70
2021/08/16 00:32:43;;;;;;;6.38;4.40;;;;;;;18.92;69.96;99368.09;10380777;28;20042;-71
2021/08/16 00:37:46;;;;;;;6.07;5.55;;;;;;;18.84;70.79;99371.34;10379722;28;20160;-71
2021/08/16 00:42:48;;;;;;;4.93;4.45;;;;;;;18.82;70.20;99373.28;10378806;28;20050;-72
2021/08/16 00:47:50;;;;;;;5.75;4.72;;;;;;;18.86;69.66;99358.78;10378538;28;20389;-72
2021/08/16 00:52:52;;;;;;;5.35;4.85;;;;;;;18.74;70.79;99354.38;10378249;28;20129;-72
2021/08/16 00:57:55;;;;;;;6.20;4.97;;;;;;;18.78;70.38;99345.19;10378829;28;20108;-72
2021/08/16 01:02:56;;;;;;;5.07;4.57;;;;;;;18.79;70.65;99328.25;10377640;28;20068;-73
2021/08/16 01:07:58;;;;;;;5.20;4.63;;;;;;;18.74;71.34;99325.09;10377758;28;20053;-73
2021/08/16 01:13:00;;;;;;;5.70;5.18;;;;;;;18.70;71.19;99327.13;10377215;28;20061;-72
2021/08/16 01:18:02;;;;;;;5.30;4.60;;;;;;;18.57;72.04;99321.88;10376966;28;20058;-72
2021/08/16 01:23:04;;;;;;;5.82;4.22;;;;;;;18.50;72.27;99319.78;10377695;28;20073;-72
2021/08/16 01:28:05;;;;;;;4.75;4.35;;;;;;;18.53;71.98;99323.06;10377475;28;20042;-72
2021/08/16 01:33:07;;;;;;;5.47;4.32;;;;;;;18.51;72.56;99321.50;10377045;28;20050;-73
2021/08/16 01:38:08;;;;;;;5.40;4.95;;;;;;;18.61;72.06;99335.78;10375346;28;20046;-73
2021/08/16 01:43:10;;;;;;;5.28;4.82;;;;;;;18.53;72.70;99335.53;10376200;28;20089;-72
2021/08/16 01:48:13;;;;;;;4.53;4.13;;;;;;;18.23;73.97;99326.22;10375593;28;20099;-73
2021/08/16 01:53:15;;;;;;;4.80;4.40;;;;;;;18.25;73.87;99331.44;10376402;28;20089;-72
2021/08/16 01:58:17;;;;;;;5.88;4.80;;;;;;;18.35;74.32;99319.97;10376019;28;20046;-72
2021/08/16 02:03:18;;;;;;;5.45;4.95;;;;;;;18.45;73.45;99317.47;10375411;28;20049;-72
2021/08/16 02:08:20;;;;;;;4.78;4.28;;;;;;;18.21;73.82;99319.31;10375809;28;20046;-73
2021/08/16 02:13:21;;;;;;;4.45;4.07;;;;;;;18.38;72.88;99306.47;10374796;28;20129;-73
2021/08/16 02:18:23;;;;;;;5.10;4.65;;;;;;;18.06;73.95;99303.56;10375441;28;20049;-73
2021/08/16 02:23:24;;;;;;;5.10;4.60;;;;;;;17.91;74.15;99296.69;10374837;28;20112;-73
2021/08/16 02:28:26;;;;;;;4.57;4.28;;;;;;;17.85;73.88;99297.16;10374411;28;20049;-73
2021/08/16 02:33:29;;;;;;;4.97;4.10;;;;;;;17.87;73.66;99295.22;10374411;28;20042;-72
2021/08/16 02:38:30;;;;;;;4.55;4.13;;;;;;;17.79;74.34;99284.28;10374145;28;20045;-73
2021/08/16 02:43:32;;;;;;;4.20;3.80;;;;;;;17.93;73.86;99289.47;10373957;28;20053;-72
2021/08/16 02:48:33;;;;;;;4.40;4.03;;;;;;;18.01;73.43;99287.06;10356457;28;20416;-72
2021/08/16 02:53:35;;;;;;;5.97;5.47;;;;;;;18.11;73.32;99280.13;10373677;28;20096;-72
2021/08/16 02:58:36;;;;;;;5.50;5.00;;;;;;;17.89;73.88;99277.38;10373430;28;20059;-72
2021/08/16 03:03:38;;;;;;;5.43;4.95;;;;;;;17.84;74.31;99272.38;10373969;28;20484;-72
2021/08/16 03:08:39;;;;;;;6.32;4.65;;;;;;;17.99;73.77;99275.72;10373358;28;20038;-72
2021/08/16 03:13:41;;;;;;;5.03;4.53;;;;;;;17.80;74.63;99278.03;10373170;28;20476;-72
2021/08/16 03:18:42;;;;;;;5.93;5.32;;;;;;;17.81;75.49;99277.06;10373087;28;20046;-72
2021/08/16 03:23:44;;;;;;;4.90;4.53;;;;;;;17.80;75.75;99280.69;10373237;28;20049;-73
2021/08/16 03:28:45;;;;;;;6.32;5.30;;;;;;;17.69;77.38;99273.47;10373203;28;20100;-73
2021/08/16 03:33:47;;;;;;;6.32;5.68;;;;;;;17.75;77.49;99278.38;10372824;28;20138;-73
2021/08/16 03:38:48;;;;;;;6.53;5.88;;;;;;;18.08;77.10;99275.03;10373974;28;20089;-73
2021/08/16 03:43:51;;;;;;;5.93;5.30;;;;;;;17.97;77.45;99274.97;10372791;28;20053;-72
2021/08/16 03:48:53;;;;;;;7.18;5.47;;;;;;;18.02;77.76;99283.47;10372714;28;20041;-72
2021/08/16 03:53:54;;;;;;;5.90;5.40;;;;;;;18.24;77.12;99273.84;10372872;28;20046;-72
2021/08/16 03:58:56;;;;;;;8.93;4.60;;;;;;;18.45;75.85;99284.69;10372753;28;20503;-72
2021/08/16 04:04:01;;;;;;;5.68;5.25;;;;;;;18.23;76.40;99265.03;10378275;28;20409;-72
2021/08/16 04:09:02;;;;;;;5.18;4.72;;;;;;;18.23;76.64;99272.16;10381255;28;20041;-72
2021/08/16 04:14:05;;;;;;;5.70;5.25;;;;;;;18.39;76.51;99270.91;10379556;28;20404;-72
2021/08/16 04:19:06;;;;;;;5.72;5.22;;;;;;;18.39;76.60;99270.03;10380613;28;20387;-72
2021/08/16 04:24:08;;;;;;;5.40;4.90;;;;;;;18.41;76.64;99263.63;10379303;28;20042;-73
2021/08/16 04:29:09;;;;;;;5.47;5.07;;;;;;;18.45;76.72;99263.41;10380542;28;20076;-72
2021/08/16 04:34:11;;;;;;;5.53;5.03;;;;;;;18.53;76.44;99255.69;10378788;28;20121;-72
2021/08/16 04:39:12;;;;;;;5.05;4.65;;;;;;;18.63;75.28;99249.53;10378699;28;20056;-72
2021/08/16 04:44:14;;;;;;;6.57;5.00;;;;;;;18.76;73.83;99245.94;10378931;28;20041;-72
2021/08/16 04:49:15;;;;;;;4.75;4.35;;;;;;;18.78;73.15;99231.56;10378445;28;20042;-73
2021/08/16 04:54:17;;;;;;;4.50;4.13;;;;;;;18.92;72.77;99237.63;10378190;28;20045;-73
2021/08/16 04:59:18;;;;;;;4.40;4.10;;;;;;;19.07;70.71;99241.72;10377873;28;20488;-73
2021/08/16 05:04:20;;;;;;;4.45;4.15;;;;;;;19.27;69.99;99235.66;10377943;28;20046;-73
2021/08/16 05:09:21;;;;;;;4.55;3.60;;;;;;;19.36;68.92;99234.91;10360536;28;20553;-72
2021/08/16 05:14:23;;;;;;;6.15;4.38;;;;;;;19.69;68.09;99233.16;10376968;28;20168;-72
2021/08/16 05:19:24;;;;;;;4.63;4.03;;;;;;;19.81;66.85;99232.16;10378032;28;20117;-72
2021/08/16 05:24:28;;;;;;;5.68;3.92;;;;;;;19.76;67.04;99225.50;10378177;28;20129;-72
2021/08/16 05:29:31;;;;;;;5.63;4.47;;;;;;;19.45;68.84;99220.00;10377698;28;20042;-73
2021/08/16 05:34:32;;;;;;;5.32;4.30;;;;;;;19.39;70.04;99226.66;10376068;28;20058;-72
2021/08/16 05:39:34;;;;;;;4.93;4.53;;;;;;;19.52;68.68;99226.53;10376427;28;20491;-72
2021/08/16 05:44:35;;;;;;;9.48;3.70;;;;;;;20.21;66.09;99230.63;10376474;28;20100;-72
2021/08/16 05:49:37;;;;;;;4.97;4.57;;;;;;;20.66;65.02;99226.72;10375598;28;20463;-72
2021/08/16 05:54:38;;;;;;;5.45;4.25;;;;;;;20.51;66.47;99230.75;10375708;28;20088;-72
2021/08/16 05:59:40;;;;;;;4.65;4.25;;;;;;;20.62;66.72;99229.81;10376384;28;20041;-73
2021/08/16 06:04:42;;;;;;;4.63;4.22;;;;;;;21.03;63.45;99226.22;10375672;28;20416;-73
2021/08/16 06:09:43;;;;;;;4.95;4.55;;;;;;;21.28;65.06;99232.06;10375282;28;20045;-72
2021/08/16 06:14:45;;;;;;;4.18;3.88;;;;;;;22.01;62.36;99224.59;10375210;28;20120;-73
2021/08/16 06:19:47;;;;;;;4.25;3.72;;;;;;;22.50;60.72;99230.78;10375151;28;20114;-73
2021/08/16 06:24:48;;;;;;;4.88;4.00;;;;;;;22.84;59.72;99212.31;10374019;28;20455;-73
2021/08/16 06:29:50;;;;;;;4.45;4.05;;;;;;;23.13;59.79;99210.41;10375678;28;20034;-73
2021/08/16 06:34:51;;;;;;;4.43;4.00;;;;;;;23.91;58.69;99212.63;10374443;28;20038;-73
2021/08/16 06:39:56;;;;;;;3.35;3.03;;;;;;;24.70;54.11;99218.94;10374365;28;20132;-73
2021/08/16 06:44:58;;;;;;;3.00;2.78;;;;;;;25.06;52.96;99236.63;10374368;28;20072;-73
2021/08/16 06:49:59;;;;;;;8.20;4.45;;;;;;;24.99;53.86;99257.06;10374087;28;20046;-72
2021/08/16 06:55:03;;;;;;;4.88;3.97;;;;;;;24.66;53.93;99267.63;10373891;28;20046;-73
2021/08/16 07:00:05;;;;;;;6.05;3.50;;;;;;;24.30;55.17;99249.84;10373796;28;20046;-73
2021/08/16 07:05:08;;;;;;;7.85;4.07;;;;;;;24.59;55.07;99258.50;10373719;28;20109;-73
2021/08/16 07:10:10;;;;;;;9.23;3.63;;;;;;;23.62;59.49;99253.88;10373210;28;20092;-72
2021/08/16 07:15:12;;;;;;;4.18;3.50;;;;;;;23.51;59.93;99253.25;10374396;28;20046;-73
2021/08/16 07:20:13;;;;;;;3.85;3.45;;;;;;;23.70;60.55;99257.69;10373551;28;20443;-72
2021/08/16 07:25:15;;;;;;;6.53;3.95;;;;;;;24.07;58.62;99253.00;10373172;28;20050;-73
2021/08/16 07:30:16;;;;;;;4.32;4.03;;;;;;;24.34;58.12;99254.75;10373506;28;20046;-73
2021/08/16 07:35:19;;;;;;;5.22;4.72;;;;;;;24.20;58.43;99255.31;10374979;28;20053;-74
2021/08/16 07:40:21;;;;;;;5.53;5.00;;;;;;;24.04;59.89;99261.41;10363292;28;20046;-73
2021/08/16 07:45:23;;;;;;;5.22;4.57;;;;;;;24.07;59.20;99258.38;10380875;28;20046;-72
2021/08/16 07:50:24;;;;;;;6.15;4.53;;;;;;;24.27;56.16;99258.22;10362626;28;20137;-73
2021/08/16 07:55:26;;;;;;;6.65;3.63;;;;;;;24.13;56.38;99249.72;10380632;28;20404;-74
2021/08/16 08:00:27;;;;;;;3.72;2.70;;;;;;;24.44;53.35;99248.47;10380154;28;20560;-73
2021/08/16 08:05:29;;;;;;;4.35;3.30;;;;;;;24.51;53.42;99274.56;10362575;28;20081;-73
2021/08/16 08:10:31;;;;;;;5.30;3.42;;;;;;;24.61;54.00;99286.09;10379808;28;20484;-71
2021/08/16 08:15:32;;;;;;;4.35;3.95;;;;;;;24.71;54.69;99294.03;10379750;28;20070;-74
2021/08/16 08:20:34;;;;;;;7.07;4.15;;;;;;;24.60;56.06;99287.06;10379929;28;20046;-73
2021/08/16 08:25:38;;;;;;;5.30;4.90;;;;;;;24.20;58.00;99300.97;10379925;28;20053;-73
2021/08/16 08:30:39;;;;;;;7.97;6.25;;;;;;;23.88;60.10;99307.69;10379021;28;20038;-73
2021/08/16 08:35:45;;;;;;;6.20;5.65;;;;;;;24.06;60.31;99313.09;10363584;28;20056;-73
2021/08/16 08:40:47;;;;;;;6.38;5.57;;;;;;;24.75;59.27;99314.22;10380215;28;20389;-74
2021/08/16 08:45:51;;;;;;;5.65;5.07;;;;;;;24.90;56.70;99320.72;10380268;28;20496;-75
2021/08/16 08:50:53;;;;;;;53.58;17.30;;;;;;;24.66;55.41;99337.50;10379234;28;20415;-72
2021/08/16 08:55:55;;;;;;;5.85;5.35;;;;;;;24.75;57.32;99316.91;10379362;28;20438;-72
2021/08/16 09:00:56;;;;;;;5.88;5.38;;;;;;;25.45;53.06;99321.38;10378879;28;20042;-72
2021/08/16 09:06:02;;;;;;;8.90;4.25;;;;;;;25.60;51.54;99317.91;10379052;28;20503;-72
2021/08/16 09:11:14;;;;;;;6.88;4.80;;;;;;;25.25;51.34;99321.63;10361888;28;20042;-71
2021/08/16 09:16:17;;;;;;;5.63;3.78;;;;;;;25.31;50.59;99320.13;10377851;28;20492;-72
2021/08/16 09:21:33;;;;;;;6.15;4.40;;;;;;;25.88;50.14;99304.22;10377560;28;20034;-72
2021/08/16 09:26:38;;;;;;;4.65;4.20;;;;;;;26.41;48.32;99308.34;10378482;28;20388;-72
2021/08/16 09:32:01;;;;;;;4.18;3.78;;;;;;;26.13;47.09;99297.91;10378458;28;20101;-72
2021/08/16 09:37:20;;;;;;;9.23;4.20;;;;;;;26.56;46.03;99290.53;10378010;28;20096;-72
2021/08/16 09:42:21;;;;;;;5.43;3.97;;;;;;;26.78;45.52;99271.97;10377756;28;20042;-70
2021/08/16 09:47:23;;;;;;;6.85;4.25;;;;;;;27.05;45.15;99262.63;10377618;28;20068;-70
2021/08/16 09:52:30;;;;;;;5.43;4.43;;;;;;;26.97;45.11;99268.06;10376120;28;20069;-70
2021/08/16 09:57:32;;;;;;;3.65;2.90;;;;;;;27.21;45.75;99243.72;10376835;28;20496;-71
2021/08/16 10:02:36;;;;;;;3.78;3.47;;;;;;;27.06;46.08;99277.81;10375697;28;20511;-70
2021/08/16 10:07:40;;;;;;;;;;;;;;;27.24;46.40;99262.28;10377808;28;20065;-71
2021/08/16 10:12:43;;;;;;;5.13;3.30;;;;;;;26.36;45.49;99267.59;10377050;28;19922;-70
2021/08/16 10:17:46;;;;;;;7.97;4.10;;;;;;;25.31;52.52;99288.69;10376686;28;20046;-71
2021/08/16 10:22:48;;;;;;;8.73;4.80;;;;;;;24.32;58.73;99266.66;10376858;28;20389;-71
2021/08/16 10:27:59;;;;;;;5.30;4.88;;;;;;;24.76;56.29;99266.69;10376425;28;20046;-71
2021/08/16 10:33:03;;;;;;;6.07;4.53;;;;;;;25.23;57.04;99256.38;10375618;28;20404;-71
2021/08/16 10:38:07;;;;;;;4.80;4.03;;;;;;;25.04;54.94;99249.38;10357400;28;20092;-70
2021/08/16 10:43:10;;;;;;;5.90;4.63;;;;;;;24.90;53.83;99234.69;10374849;28;20049;-74
2021/08/16 10:48:26;;;;;;;4.60;4.20;;;;;;;25.36;53.82;99237.94;10374747;28;20416;-71
2021/08/16 10:53:28;;;;;;;7.07;4.38;;;;;;;25.74;52.61;99238.38;10374342;28;20046;-70
2021/08/16 10:58:30;;;;;;;5.22;4.20;;;;;;;26.28;53.00;99238.81;10374184;28;20046;-72
2021/08/16 11:03:31;;;;;;;4.72;4.43;;;;;;;26.79;49.50;99220.59;10357273;28;20399;-71
2021/08/16 11:08:33;;;;;;;4.68;4.10;;;;;;;27.03;49.43;99224.22;10374479;28;20136;-71
2021/08/16 11:13:36;;;;;;;6.70;4.47;;;;;;;27.51;48.53;99225.88;10372909;28;20125;-71
2021/08/16 11:18:37;;;;;;;4.47;4.18;;;;;;;27.40;47.44;99228.97;10374020;28;20053;-71
2021/08/16 11:23:40;;;;;;;4.00;3.60;;;;;;;27.08;46.51;99243.41;10374249;28;20046;-71
2021/08/16 11:28:42;;;;;;;5.97;3.50;;;;;;;26.60;46.01;99239.81;10373929;28;20116;-70
2021/08/16 11:33:43;;;;;;;6.60;4.00;;;;;;;26.25;45.75;99238.28;10373615;28;20183;-71
2021/08/16 11:38:53;;;;;;;6.90;3.72;;;;;;;26.38;45.05;99235.94;10373527;28;20506;-71
2021/08/16 11:43:55;;;;;;;4.25;3.65;;;;;;;26.73;44.25;99233.91;10373766;28;20053;-70
2021/08/16 11:48:56;;;;;;;5.32;3.65;;;;;;;25.97;45.02;99249.38;10378316;28;20045;-71
2021/08/16 11:53:58;;;;;;;3.80;3.40;;;;;;;25.77;44.53;99250.72;10373247;28;20046;-70
2021/08/16 11:58:59;;;;;;;4.40;3.30;;;;;;;26.19;44.81;99258.66;10374101;28;20057;-71
2021/08/16 12:04:02;;;;;;;4.30;3.42;;;;;;;26.53;43.63;99266.63;10373464;28;20042;-72
2021/08/16 12:09:07;;;;;;;4.53;3.28;;;;;;;26.29;42.18;99258.50;10374396;28;20045;-71
2021/08/16 12:14:09;;;;;;;;;;;;;;;26.44;41.35;99246.09;10374630;28;20046;-71
2021/08/16 12:19:16;;;;;;;4.20;3.80;;;;;;;26.45;39.96;99247.75;10374706;28;19927;-70
2021/08/16 12:24:20;;;;;;;7.15;3.33;;;;;;;26.84;41.03;99252.41;10379931;28;20480;-71
2021/08/16 12:29:23;;;;;;;5.65;3.17;;;;;;;26.80;40.95;99248.38;10380538;28;20097;-71
2021/08/16 12:34:33;;;;;;;4.28;3.38;;;;;;;26.38;39.25;99252.94;10380436;28;20500;-72
2021/08/16 12:39:35;;;;;;;3.65;3.33;;;;;;;25.99;39.76;99257.31;10381304;28;20046;-72
2021/08/16 12:44:43;;;;;;;5.90;3.15;;;;;;;25.66;40.38;99247.28;10381433;28;20444;-70
2021/08/16 12:49:55;;;;;;;4.20;3.30;;;;;;;25.81;40.44;99252.03;10380805;28;20092;-71
2021/08/16 12:54:56;;;;;;;4.50;2.83;;;;;;;25.74;39.96;99251.00;10381084;28;20046;-71
2021/08/16 12:59:58;;;;;;;7.90;2.15;;;;;;;25.54;39.21;99264.72;10380112;28;20046;-71
2021/08/16 13:05:00;;;;;;;2.95;2.10;;;;;;;25.14;40.09;99254.66;10380008;28;20406;-72
2021/08/16 13:10:03;;;;;;;2.67;2.15;;;;;;;25.21;40.23;99262.94;10378901;28;20046;-72
2021/08/16 13:15:06;;;;;;;4.68;2.15;;;;;;;25.31;40.88;99256.41;10378091;28;20046;-73
2021/08/16 13:20:08;;;;;;;4.15;2.17;;;;;;;25.38;39.76;99251.25;10345401;28;20084;-72
2021/08/16 13:25:10;;;;;;;2.70;1.98;;;;;;;25.00;41.49;99248.00;10379473;28;20046;-72
2021/08/16 13:30:13;;;;;;;3.97;1.42;;;;;;;25.13;39.79;99252.97;10379172;28;20072;-71
2021/08/16 13:35:15;;;;;;;2.08;1.33;;;;;;;25.20;39.14;99269.31;10377754;28;20126;-71
2021/08/16 13:40:17;;;;;;;2.72;1.40;;;;;;;24.91;39.36;99254.34;10378001;28;20048;-70
2021/08/16 13:45:18;;;;;;;3.70;1.52;;;;;;;24.82;40.68;99256.13;10376744;28;20050;-71
2021/08/16 13:50:20;;;;;;;2.15;1.15;;;;;;;25.03;39.89;99253.06;10395976;28;20044;-70
2021/08/16 13:55:22;;;;;;;2.50;1.38;;;;;;;25.34;39.79;99263.31;10405072;28;20045;-70
2021/08/16 14:00:25;;;;;;;3.75;1.05;;;;;;;24.96;39.53;99261.91;10359468;28;20096;-71
2021/08/16 14:05:27;;;;;;;3.58;1.30;;;;;;;24.56;39.43;99269.56;10402509;28;20152;-71
2021/08/16 14:10:28;;;;;;;2.58;1.10;;;;;;;24.32;40.96;99269.34;10417060;28;20038;-70
2021/08/16 14:15:31;;;;;;;2.60;1.30;;;;;;;24.48;40.35;99260.59;10399377;28;20049;-72
2021/08/16 14:20:33;;;;;;;3.72;1.20;;;;;;;24.58;39.86;99269.41;10417797;28;20124;-71
2021/08/16 14:25:38;;;;;;;2.95;1.00;;;;;;;24.26;40.08;99264.56;10398435;28;20045;-71
2021/08/16 14:30:40;;;;;;;3.05;0.93;;;;;;;24.40;39.79;99261.41;10397182;28;20183;-71
2021/08/16 14:35:42;;;;;;;2.70;1.17;;;;;;;24.50;39.58;99275.56;10396420;28;20049;-72
2021/08/16 14:40:44;;;;;;;2.38;1.30;;;;;;;24.42;39.71;99276.34;10398678;28;20045;-70
2021/08/16 14:45:46;;;;;;;4.72;1.30;;;;;;;24.21;39.50;99278.47;10412449;28;20061;-71
2021/08/16 14:50:50;;;;;;;3.95;1.00;;;;;;;24.27;40.33;99296.66;10389926;28;20551;-71
2021/08/16 14:55:52;;;;;;;2.45;0.90;;;;;;;24.29;39.16;99296.50;10389341;28;20046;-71
2021/08/16 15:00:55;;;;;;;3.03;0.90;;;;;;;24.12;38.54;99298.19;10392396;28;20160;-71
2021/08/16 15:06:08;;;;;;;3.40;0.90;;;;;;;23.97;38.47;99297.03;10415111;28;20042;-71
2021/08/16 15:11:11;;;;;;;2.47;1.05;;;;;;;23.88;38.96;99304.16;10380983;28;20050;-71
2021/08/16 15:16:14;;;;;;;3.22;1.00;;;;;;;23.60;39.11;99311.38;10372015;28;20053;-72
2021/08/16 15:21:15;;;;;;;5.75;0.77;;;;;;;23.51;38.80;99321.16;10371154;28;20042;-71
2021/08/16 15:26:17;;;;;;;5.65;0.93;;;;;;;23.71;37.40;99316.56;10388360;28;20046;-71
2021/08/16 15:31:19;;;;;;;3.35;0.90;;;;;;;23.54;36.98;99317.31;10412797;28;20041;-71
2021/08/16 15:36:20;;;;;;;3.30;1.50;;;;;;;23.47;38.24;99318.94;10415252;28;20045;-70
2021/08/16 15:41:22;;;;;;;2.70;1.40;;;;;;;23.65;37.60;99307.28;10397550;28;20418;-73
2021/08/16 15:46:24;;;;;;;2.85;1.25;;;;;;;23.44;37.71;99317.38;10396316;28;20050;-73
2021/08/16 15:51:25;;;;;;;5.18;1.75;;;;;;;23.51;38.49;99321.16;10412703;28;20482;-70
2021/08/16 15:56:27;;;;;;;4.97;1.27;;;;;;;23.10;38.83;99339.34;10396826;28;20140;-73
2021/08/16 16:01:29;;;;;;;5.28;1.25;;;;;;;23.16;39.13;99328.06;10421903;28;20064;-72
2021/08/16 16:06:35;;;;;;;2.33;1.17;;;;;;;23.15;38.79;99338.91;10423277;28;20056;-74
2021/08/16 16:11:37;;;;;;;2.28;1.40;;;;;;;22.81;39.49;99352.81;10424571;28;20052;-72
2021/08/16 16:16:38;;;;;;;4.00;1.30;;;;;;;22.56;40.80;99354.22;10422345;28;20045;-73
2021/08/16 16:21:41;;;;;;;3.03;1.13;;;;;;;22.42;40.35;99351.97;10421795;28;20105;-72
2021/08/16 16:26:43;;;;;;;1.98;1.30;;;;;;;22.31;40.32;99347.63;10422306;28;20065;-74
2021/08/16 16:31:44;;;;;;;2.47;1.17;;;;;;;22.29;40.77;99343.38;10421196;28;20049;-73
2021/08/16 16:36:46;;;;;;;2.25;1.25;;;;;;;22.22;41.19;99344.91;10420802;28;20052;-73
2021/08/16 16:41:48;;;;;;;3.85;1.30;;;;;;;22.16;40.58;99341.81;10420096;28;20046;-73
2021/08/16 16:46:49;;;;;;;2.55;1.08;;;;;;;22.14;41.29;99342.97;10421026;28;20069;-73
2021/08/16 16:51:51;;;;;;;1.50;1.30;;;;;;;21.97;41.62;99336.41;10420176;28;20049;-73
2021/08/16 16:56:52;;;;;;;4.63;1.10;;;;;;;22.06;41.77;99330.22;10420740;28;20050;-72
2021/08/16 17:01:54;;;;;;;1.25;1.05;;;;;;;22.10;42.55;99328.13;10420248;28;20041;-73
2021/08/16 17:06:56;;;;;;;2.10;1.13;;;;;;;22.24;41.54;99334.94;10419919;28;20506;-73
2021/08/16 17:11:57;;;;;;;3.28;1.10;;;;;;;22.11;41.88;99325.31;10419167;28;20045;-74
2021/08/16 17:16:59;;;;;;;4.25;1.45;;;;;;;22.03;42.17;99326.97;10419971;28;20052;-72
2021/08/16 17:22:01;;;;;;;2.25;1.20;;;;;;;21.94;42.43;99334.00;10419997;28;20045;-73
2021/08/16 17:27:03;;;;;;;13.77;1.75;;;;;;;22.02;42.39;99334.16;10420273;28;20054;-73
2021/08/16 17:32:05;;;;;;;2.33;0.90;;;;;;;21.91;43.09;99334.28;10420397;28;20033;-72
2021/08/16 17:37:08;;;;;;;1.55;1.10;;;;;;;21.85;43.23;99332.16;10419221;28;20053;-72
2021/08/16 17:42:10;;;;;;;4.55;1.40;;;;;;;21.74;42.85;99334.97;10418557;28;20041;-72
2021/08/16 17:47:11;;;;;;;4.50;1.17;;;;;;;21.67;42.61;99340.84;10418106;28;20053;-73
2021/08/16 17:52:13;;;;;;;2.58;1.00;;;;;;;21.62;42.58;99343.09;10417423;28;20472;-73
2021/08/16 17:57:16;;;;;;;3.28;1.20;;;;;;;21.51;43.41;99355.69;10418208;28;20046;-72
2021/08/16 18:02:20;;;;;;;2.35;1.13;;;;;;;21.02;47.25;99398.19;10417707;28;20522;-73
2021/08/16 18:07:22;;;;;;;3.30;1.00;;;;;;;19.93;52.50;99417.00;10416538;28;20052;-71
2021/08/16 18:12:24;;;;;;;2.42;1.05;;;;;;;19.19;55.47;99456.53;10417065;28;20045;-72
2021/08/16 18:17:25;;;;;;;2.33;1.02;;;;;;;18.55;58.31;99486.16;10417181;28;20099;-71
2021/08/16 18:22:27;;;;;;;1.80;1.00;;;;;;;18.26;59.96;99480.28;10416616;28;20056;-71
2021/08/16 18:27:29;;;;;;;4.15;0.85;;;;;;;17.87;61.19;99507.91;10400245;28;20096;-71
2021/08/16 18:32:31;;;;;;;2.05;0.98;;;;;;;17.67;61.73;99527.06;10398936;28;20049;-71
2021/08/16 18:37:34;;;;;;;1.45;1.00;;;;;;;17.75;61.47;99528.25;10416794;28;20077;-71
2021/08/16 18:42:36;;;;;;;1.70;0.88;;;;;;;17.45;62.44;99544.47;10416335;28;20033;-72
2021/08/16 18:47:38;;;;;;;3.38;0.90;;;;;;;17.19;63.26;99551.53;10416927;28;20104;-72
2021/08/16 18:52:40;;;;;;;2.22;1.17;;;;;;;17.39;62.29;99574.94;10415724;28;20495;-72
2021/08/16 18:57:42;;;;;;;2.17;0.88;;;;;;;17.05;62.82;99588.78;10416526;28;20053;-72
2021/08/16 19:02:46;;;;;;;2.00;1.30;;;;;;;16.87;62.85;99598.78;10415902;28;20045;-72
2021/08/16 19:07:47;;;;;;;1.63;1.02;;;;;;;16.91;62.29;99618.88;10415922;28;20383;-72
2021/08/16 19:12:54;;;;;;;3.92;1.25;;;;;;;16.94;62.30;99629.28;10415792;28;20060;-72
2021/08/16 19:17:56;;;;;;;2.78;1.30;;;;;;;16.98;62.05;99638.75;10415184;28;20064;-72
2021/08/16 19:22:58;;;;;;;2.35;1.10;;;;;;;16.97;62.72;99646.81;10415224;28;20046;-72
2021/08/16 19:28:00;;;;;;;1.92;1.20;;;;;;;16.80;65.04;99669.13;10415477;28;20455;-72
2021/08/16 19:33:01;;;;;;;2.13;1.40;;;;;;;16.59;67.57;99685.41;10419692;28;20048;-72
2021/08/16 19:38:03;;;;;;;1.65;1.35;;;;;;;16.09;72.45;99688.50;10424085;28;20408;-72
2021/08/16 19:43:05;;;;;;;1.55;1.40;;;;;;;15.82;76.01;99697.16;10406000;28;20116;-72
2021/08/16 19:48:06;;;;;;;1.30;1.20;;;;;;;15.70;77.58;99704.97;10424209;28;20099;-73
2021/08/16 19:53:08;;;;;;;1.73;1.42;;;;;;;15.14;80.38;99704.59;10422587;28;20037;-73
2021/08/16 19:58:10;;;;;;;1.55;1.00;;;;;;;14.96;81.14;99711.72;10422545;28;20088;-73
2021/08/16 20:03:14;;;;;;;2.00;1.20;;;;;;;14.90;82.16;99722.66;10422979;28;20384;-72
2021/08/16 20:08:16;;;;;;;2.20;1.00;;;;;;;14.54;82.65;99718.41;10424793;28;20053;-72
2021/08/16 20:13:17;;;;;;;0.80;0.70;;;;;;;14.54;82.58;99713.13;10424045;28;20438;-72
2021/08/16 20:18:19;;;;;;;1.17;0.68;;;;;;;14.68;83.47;99730.03;10405464;28;20046;-71
2021/08/16 20:23:20;;;;;;;1.58;0.90;;;;;;;14.60;83.62;99728.66;10422272;28;20092;-70
2021/08/16 20:28:22;;;;;;;1.70;1.58;;;;;;;14.55;84.46;99729.84;10422999;28;20045;-72
2021/08/16 20:33:24;;;;;;;1.60;0.95;;;;;;;14.70;85.21;99736.97;10422387;28;20119;-71
2021/08/16 20:38:25;;;;;;;2.10;0.73;;;;;;;15.03;81.47;99733.44;10421876;28;20447;-72
2021/08/16 20:43:26;;;;;;;0.80;0.80;;;;;;;15.06;81.41;99750.00;10419030;28;20041;-71
2021/08/16 20:48:29;;;;;;;1.20;0.90;;;;;;;14.93;81.61;99751.59;10420655;28;20045;-71
2021/08/16 20:53:31;;;;;;;2.40;1.00;;;;;;;14.71;83.87;99754.56;10419799;28;20399;-70
2021/08/16 20:58:33;;;;;;;1.98;1.10;;;;;;;14.48;84.33;99761.06;10402350;28;20049;-70
2021/08/16 21:03:34;;;;;;;2.15;1.30;;;;;;;14.25;83.96;99775.41;10420241;28;20111;-70
2021/08/16 21:08:36;;;;;;;2.00;1.23;;;;;;;13.96;83.68;99776.03;10419757;28;20503;-69
2021/08/16 21:13:39;;;;;;;3.22;1.50;;;;;;;13.50;84.73;99795.00;10402066;28;20045;-70
2021/08/16 21:18:40;;;;;;;2.03;1.33;;;;;;;13.47;86.17;99800.41;10420187;28;20097;-69
2021/08/16 21:23:42;;;;;;;1.45;1.20;;;;;;;13.56;83.85;99776.19;10420024;28;20100;-69
2021/08/16 21:28:44;;;;;;;1.42;1.02;;;;;;;13.71;81.98;99769.31;10419197;28;20487;-71
2021/08/16 21:33:46;;;;;;;1.17;0.90;;;;;;;13.73;83.70;99762.19;10418916;28;20121;-69
2021/08/16 21:38:48;;;;;;;2.08;1.20;;;;;;;13.92;83.45;99748.91;10401098;28;20050;-69
2021/08/16 21:43:50;;;;;;;3.05;1.60;;;;;;;13.96;85.04;99755.75;10420071;28;20092;-72
2021/08/16 21:48:51;;;;;;;3.92;1.70;;;;;;;13.93;84.65;99770.91;10418877;28;20565;-72
2021/08/16 21:53:53;;;;;;;2.60;2.20;;;;;;;14.09;82.07;99762.13;10419012;28;20045;-72
2021/08/16 21:58:55;;;;;;;2.80;2.60;;;;;;;14.02;82.25;99754.56;10418924;28;20073;-72
2021/08/16 22:03:56;;;;;;;3.35;2.60;;;;;;;13.93;81.42;99753.25;10401251;28;20507;-72
2021/08/16 22:08:58;;;;;;;2.67;2.47;;;;;;;13.77;82.11;99755.81;10419726;28;20570;-73
2021/08/16 22:14:00;;;;;;;3.22;2.42;;;;;;;13.73;79.18;99742.84;10419318;28;20044;-73
2021/08/16 22:19:02;;;;;;;3.33;1.90;;;;;;;13.63;78.39;99698.38;10402313;28;20049;-72
2021/08/16 22:24:04;;;;;;;2.28;1.50;;;;;;;13.53;77.58;99720.03;10418893;28;20116;-73
2021/08/16 22:29:06;;;;;;;4.25;2.47;;;;;;;13.46;77.32;99734.44;10418575;28;20053;-73
2021/08/16 22:34:07;;;;;;;3.35;2.10;;;;;;;13.43;78.85;99722.28;10418931;28;20069;-73
2021/08/16 22:39:09;;;;;;;3.47;1.95;;;;;;;13.43;77.74;99711.72;10420233;28;20504;-73
2021/08/16 22:44:11;;;;;;;3.17;1.85;;;;;;;13.41;77.38;99718.81;10401557;28;20564;-73
2021/08/16 22:49:12;;;;;;;2.63;1.80;;;;;;;13.36;75.60;99734.03;10418754;28;20053;-73
2021/08/16 22:54:14;;;;;;;2.25;1.20;;;;;;;13.36;76.28;99728.75;10418070;28;20045;-73
2021/08/16 22:59:20;;;;;;;4.10;1.60;;;;;;;13.28;75.30;99752.03;10425583;28;20052;-74
2021/08/16 23:04:22;;;;;;;3.00;1.70;;;;;;;13.32;75.36;99764.16;10422623;28;20046;-74
2021/08/16 23:09:24;;;;;;;2.22;1.60;;;;;;;13.27;75.29;99745.03;10422099;28;20045;-74
2021/08/16 23:14:26;;;;;;;3.83;1.45;;;;;;;13.33;72.30;99736.84;10422960;28;20049;-73
2021/08/16 23:19:27;;;;;;;3.35;1.40;;;;;;;13.31;73.57;99734.25;10420667;28;20042;-73
2021/08/16 23:24:29;;;;;;;2.88;1.30;;;;;;;13.29;72.52;99725.56;10424436;28;20048;-74
2021/08/16 23:29:30;;;;;;;2.13;1.30;;;;;;;13.18;73.30;99729.59;10423727;28;20049;-74